East Templeton, MA

9:13 PM EST on December 09, 2019 (GMT -0500)
S. Main St. East Templeton | | Change Station

Elev 1033 ft 42.56 °N, 72.04 °W | Updated 7 seconds ago

Rain
Rain
50.5 °F
Feels Like 50.5 °F
N
4.9
Wind Variable Wind from South
Gusts 13.0 mph

Today
High -- | Low -- °F
--% Chance of Precip.
Yesterday
High -- | Low -- °F
Precip. -- in
Pressure 29.72 in
Visibility 7.0 miles
Clouds Mostly Cloudy 1400 ft
Overcast 3300 ft
Dew Point 50 °F
Humidity 96%
Rainfall 0.90 in
Snow Depth Not available.
7:05 AM 4:14 PM
Waxing Gibbous, 95% visible
METAR KORE 100152Z AUTO 18012KT 7SM -RA BKN014 OVC033 10/08 A2970 RMK AO2 SLP062 P0004 T01000083
Pressure 29.72 in
Visibility 7.0 miles
Clouds Mostly Cloudy 1400 ft
Overcast 3300 ft
Dew Point 50 °F
Humidity 96%
Rainfall 0.90 in
Snow Depth Not available.
7:05 AM 4:14 PM
Waxing Gibbous, 95% visible
METAR KORE 100152Z AUTO 18012KT 7SM -RA BKN014 OVC033 10/08 A2970 RMK AO2 SLP062 P0004 T01000083

Get Severe Weather Alerts

Thanks for signing up!

Be on the lookout for a verification email in your inbox.

You'll start receiving the daily forecast at 6 AM.

×

10-Day Weather Forecast

Almanac

Astronomy

Dec. 09, 2019 Rise Set
Actual Time
Civil Twilight
Nautical Twilight
Astronomical Twilight
Moon
Length of Visible Light
Length of Day
Tomorrow will be .
, % of the Moon is Illuminated

Today's Extremes

State Highs State Lows

Community

WunderPhotos

Category 6

Welcome to Category 6. This is the collective home for Weather Underground's featured writeups by Dr. Jeff Masters (right), Bob Henson (left), Chris Burt, and other regular contributors.

Nearby

Air Quality

  Air Quality AQ Index Pollutant
Not available.

Snow Depth

Station Depth Elevation

Earthquake Activity

City Distance Mag. Time & Date
Minimum magnitude displayed is 2.5.

Coastal Water Temperatures

Place Temperature

Stations

Nearby Weather Stations

Station Location Temp. Windchill Dew Point Humidity Wind Precip. Elev Updated Type
                   

Watches & Warnings

There are currently no watches in effect.